Le Roy, Illinois
Current Conditions -  °F | °C
As of 11:58 AM on Friday 31 Oct 2014 (Local Time) from KBMI Reporting Station
Broken Clouds Broken Clouds  
Wind Chill: -1°   Ceiling: 3700
Heat Index:   Visibility: 10mi
Dew Point: -3°   Wind: 29mph
Humidity: 57%   Direction: 340°NNW
Pressure: 30.2"   Gusts: 39mph
Location:  40.35°N, 88.76°W
Report Text: KBMI 311658Z 34025G34KT 10SM BKN037 05/M03 A3020 RMK AO2 PK WND 33029/1658
Loading
Personal Weather Stations






























Interactive Weather Map
Tropical Storm Tracking
New forecast layout! Learn more

10-Day Weather Forecast

Advertisements
Track Severe Weather on mobile